Estestar — 3ECR8 — position and weather

sailwx.info

Track history (hours):
 
Tides and Currents Weather Stations Pressure Air Temp Water Temp Dewpoint Dewpoint Depression Visibility Wind Speed Wind Dir Waves Ship Positions

Estestar

Last reported at 2015-Jul-23 21:28 UTC. Time now 2015-Jul-28 15:25 UTC.
Position N 36°08' E 014°60'.

Length 133 m; draft 7.8 m.

Type: Cargo ship. MMSI: 371448000.

Date/timePositionNaut miles runAvg speedWind from/ knotsBaromVisibWave heightAir tempDewpointWater temp
2015-Jul-23 21:28N 36°08' E 014°60'8 8.2
2015-Jul-23 20:32N 36°02' E 014°53'8 8.2
2015-Jul-23 19:33N 35°56' E 014°47'3 3.4
2015-Jul-23 18:34N 35°53' E 014°46'0 0.0
2015-Jul-23 17:34N 35°53' E 014°46'0 0.0
2015-Jul-23 16:34N 35°53' E 014°46'0 0.0
2015-Jul-23 15:33N 35°53' E 014°46'3 3.3
2015-Jul-23 14:34N 35°55' E 014°43'9 9.0
2015-Jul-23 13:34N 36°00' E 014°34'9 9.0
2015-Jul-23 12:34N 36°05' E 014°25'9 9.0
2015-Jul-23 11:34N 36°11' E 014°15'9 9.0
2015-Jul-23 10:34N 36°15' E 014°05'9 8.9
2015-Jul-23 09:34N 36°18' E 013°55'9 9.0
2015-Jul-23 08:34N 36°21' E 013°45'9 9.4
2015-Jul-23 07:33N 36°26' E 013°34'9 9.5
2015-Jul-23 06:34N 36°30' E 013°24'9 9.4
2015-Jul-23 05:33N 36°34' E 013°13'9 9.3
2015-Jul-23 04:33N 36°38' E 013°03'9 9.4
2015-Jul-23 03:34N 36°42' E 012°52'9 9.4
2015-Jul-23 02:34N 36°46' E 012°41'10 9.7
2015-Jul-23 01:33N 36°49' E 012°30'1010.2
2015-Jul-23 00:33N 36°54' E 012°19'1010.0
2015-Jul-22 23:33N 36°58' E 012°07'10 9.8
2015-Jul-22 22:34N 37°02' E 011°56'9 9.4
2015-Jul-22 21:34N 37°06' E 011°46'10 9.4
2015-Jul-22 20:33N 37°10' E 011°35'9 9.3
2015-Jul-22 19:33N 37°15' E 011°25'10 9.2
2015-Jul-22 18:28N 37°20' E 011°14'8 9.2
2015-Jul-22 17:33N 37°23' E 011°04'11 9.8
2015-Jul-22 16:24N 37°27' E 010°51'11 9.7
2015-Jul-22 15:15N 37°30' E 010°37'1010.0
2015-Jul-22 14:17N 37°33' E 010°26'7 9.9
2015-Jul-22 13:33N 37°34' E 010°17'13 9.7
2015-Jul-22 12:15N 37°33' E 010°01'7 9.5
2015-Jul-22 11:33N 37°31' E 009°53'9 8.8
2015-Jul-22 10:33N 37°27' E 009°43'5 1.6
2015-Jul-22 07:29N 37°27' E 009°37'28 9.4
2015-Jul-22 04:29N 37°21' E 009°02'9 9.4
2015-Jul-22 03:32N 37°18' E 008°51'110 9.0
2015-Jul-21 15:13N 37°15' E 006°33'8 7.6
2015-Jul-21 14:06N 37°15' E 006°22'5 7.6
2015-Jul-21 13:29N 37°15' E 006°16'7 7.7
2015-Jul-21 12:34N 37°15' E 006°07'10 7.9
2015-Jul-21 11:17N 37°14' E 005°55'7 8.4
2015-Jul-21 10:30N 37°13' E 005°46'66 9.0
2015-Jul-21 03:07N 37°09' E 004°23'14 8.6
2015-Jul-21 01:32N 37°07' E 004°06'9 9.1
2015-Jul-21 00:34N 37°06' E 003°55'9 9.2
2015-Jul-20 23:32N 37°04' E 003°44'9 9.3
2015-Jul-20 22:34N 37°02' E 003°33'9 8.8
2015-Jul-20 21:33N 37°01' E 003°22'9 9.2
2015-Jul-20 20:34N 36°60' E 003°10'9 9.1
2015-Jul-20 19:33N 36°60' E 002°59'9 8.9
2015-Jul-20 18:33N 36°59' E 002°48'9 8.8
2015-Jul-20 17:33N 36°58' E 002°37'9 8.5
2015-Jul-20 16:32N 36°57' E 002°26'10 8.7
2015-Jul-20 15:23N 36°55' E 002°14'7 8.7
2015-Jul-20 14:33N 36°54' E 002°05'9 8.8
2015-Jul-20 13:33N 36°53' E 001°54'8 8.5
2015-Jul-20 12:33N 36°51' E 001°44'8 8.3
2015-Jul-20 11:33N 36°50' E 001°33'9 8.6
2015-Jul-20 10:33N 36°49' E 001°23'19 9.3
2015-Jul-20 08:31N 36°46' E 000°59'1010.0
2015-Jul-20 07:32N 36°44' E 000°47'1010.0
2015-Jul-20 06:32N 36°43' E 000°35'10 9.6
2015-Jul-20 05:32N 36°41' E 000°23'9 9.0
2015-Jul-20 04:33N 36°40' E 000°12'10 8.9
2015-Jul-20 03:29N 36°38' E 000°01'8 8.9
2015-Jul-20 02:33N 36°37' W 000°10'9 8.6
2015-Jul-20 01:34N 36°35' W 000°20'30 8.5
2015-Jul-19 22:03N 36°32' W 000°57'16 8.7
2015-Jul-19 20:14N 36°29' W 001°17'34 9.0
2015-Jul-19 16:28N 36°24' W 001°58'18 9.5
2015-Jul-19 14:33N 36°21' W 002°20'298 8.5
2015-Jul-18 03:33N 36°23' W 008°30'10 9.6
2015-Jul-18 02:28N 36°26' W 008°43'12 9.4
2015-Jul-18 01:13N 36°29' W 008°57'33 8.8
2015-Jul-17 21:30N 36°46' W 009°31'13 9.5
2015-Jul-17 20:08N 36°58' W 009°37'610.1
2015-Jul-17 19:33N 37°04' W 009°38'1110.3
2015-Jul-17 18:27N 37°15' W 009°41'910.2
2015-Jul-17 17:33N 37°24' W 009°44'1010.1
2015-Jul-17 16:33N 37°34' W 009°47'1010.2
2015-Jul-17 15:33N 37°44' W 009°50'1010.5
2015-Jul-17 14:33N 37°54' W 009°53'1110.6
2015-Jul-17 13:32N 38°04' W 009°56'1010.5
2015-Jul-17 12:33N 38°14' W 009°59'10 9.9
2015-Jul-17 11:33N 38°24' W 010°02'1010.2
2015-Jul-17 10:33N 38°34' W 010°05'10 9.6
2015-Jul-17 09:33N 38°43' W 010°07'1010.3
2015-Jul-17 08:33N 38°54' W 010°07'1010.3
2015-Jul-17 07:33N 39°04' W 010°06'1010.3
2015-Jul-17 06:33N 39°14' W 010°03'10 9.9
2015-Jul-17 05:32N 39°24' W 009°60'10 9.7
2015-Jul-17 04:31N 39°33' W 009°56'  
Track history (hours):
 
Tides and Currents Weather Stations Pressure Air Temp Water Temp Dewpoint Dewpoint Depression Visibility Wind Speed Wind Dir Waves Ship Positions

Estestar

Last reported at 2015-Jul-23 21:28 UTC. Time now 2015-Jul-28 15:25 UTC.
Position N 36°08' E 014°60'.

Length 133 m; draft 7.8 m.

Type: Cargo ship. MMSI: 371448000.

Date/timePositionNaut miles runAvg speedWind from/ knotsBaromVisibWave heightAir tempDewpointWater temp
2015-Jul-23 21:28N 36°08' E 014°60'8 8.2
2015-Jul-23 20:32N 36°02' E 014°53'8 8.2
2015-Jul-23 19:33N 35°56' E 014°47'3 3.4
2015-Jul-23 18:34N 35°53' E 014°46'0 0.0
2015-Jul-23 17:34N 35°53' E 014°46'0 0.0
2015-Jul-23 16:34N 35°53' E 014°46'0 0.0
2015-Jul-23 15:33N 35°53' E 014°46'3 3.3
2015-Jul-23 14:34N 35°55' E 014°43'9 9.0
2015-Jul-23 13:34N 36°00' E 014°34'9 9.0
2015-Jul-23 12:34N 36°05' E 014°25'9 9.0
2015-Jul-23 11:34N 36°11' E 014°15'9 9.0
2015-Jul-23 10:34N 36°15' E 014°05'9 8.9
2015-Jul-23 09:34N 36°18' E 013°55'9 9.0
2015-Jul-23 08:34N 36°21' E 013°45'9 9.4
2015-Jul-23 07:33N 36°26' E 013°34'9 9.5
2015-Jul-23 06:34N 36°30' E 013°24'9 9.4
2015-Jul-23 05:33N 36°34' E 013°13'9 9.3
2015-Jul-23 04:33N 36°38' E 013°03'9 9.4
2015-Jul-23 03:34N 36°42' E 012°52'9 9.4
2015-Jul-23 02:34N 36°46' E 012°41'10 9.7
2015-Jul-23 01:33N 36°49' E 012°30'1010.2
2015-Jul-23 00:33N 36°54' E 012°19'1010.0
2015-Jul-22 23:33N 36°58' E 012°07'10 9.8
2015-Jul-22 22:34N 37°02' E 011°56'9 9.4
2015-Jul-22 21:34N 37°06' E 011°46'10 9.4
2015-Jul-22 20:33N 37°10' E 011°35'9 9.3
2015-Jul-22 19:33N 37°15' E 011°25'10 9.2
2015-Jul-22 18:28N 37°20' E 011°14'8 9.2
2015-Jul-22 17:33N 37°23' E 011°04'11 9.8
2015-Jul-22 16:24N 37°27' E 010°51'11 9.7
2015-Jul-22 15:15N 37°30' E 010°37'1010.0
2015-Jul-22 14:17N 37°33' E 010°26'7 9.9
2015-Jul-22 13:33N 37°34' E 010°17'13 9.7
2015-Jul-22 12:15N 37°33' E 010°01'7 9.5
2015-Jul-22 11:33N 37°31' E 009°53'9 8.8
2015-Jul-22 10:33N 37°27' E 009°43'5 1.6
2015-Jul-22 07:29N 37°27' E 009°37'28 9.4
2015-Jul-22 04:29N 37°21' E 009°02'9 9.4
2015-Jul-22 03:32N 37°18' E 008°51'110 9.0
2015-Jul-21 15:13N 37°15' E 006°33'8 7.6
2015-Jul-21 14:06N 37°15' E 006°22'5 7.6
2015-Jul-21 13:29N 37°15' E 006°16'7 7.7
2015-Jul-21 12:34N 37°15' E 006°07'10 7.9
2015-Jul-21 11:17N 37°14' E 005°55'7 8.4
2015-Jul-21 10:30N 37°13' E 005°46'66 9.0
2015-Jul-21 03:07N 37°09' E 004°23'14 8.6
2015-Jul-21 01:32N 37°07' E 004°06'9 9.1
2015-Jul-21 00:34N 37°06' E 003°55'9 9.2
2015-Jul-20 23:32N 37°04' E 003°44'9 9.3
2015-Jul-20 22:34N 37°02' E 003°33'9 8.8
2015-Jul-20 21:33N 37°01' E 003°22'9 9.2
2015-Jul-20 20:34N 36°60' E 003°10'9 9.1
2015-Jul-20 19:33N 36°60' E 002°59'9 8.9
2015-Jul-20 18:33N 36°59' E 002°48'9 8.8
2015-Jul-20 17:33N 36°58' E 002°37'9 8.5
2015-Jul-20 16:32N 36°57' E 002°26'10 8.7
2015-Jul-20 15:23N 36°55' E 002°14'7 8.7
2015-Jul-20 14:33N 36°54' E 002°05'9 8.8
2015-Jul-20 13:33N 36°53' E 001°54'8 8.5
2015-Jul-20 12:33N 36°51' E 001°44'8 8.3
2015-Jul-20 11:33N 36°50' E 001°33'9 8.6
2015-Jul-20 10:33N 36°49' E 001°23'19 9.3
2015-Jul-20 08:31N 36°46' E 000°59'1010.0
2015-Jul-20 07:32N 36°44' E 000°47'1010.0
2015-Jul-20 06:32N 36°43' E 000°35'10 9.6
2015-Jul-20 05:32N 36°41' E 000°23'9 9.0
2015-Jul-20 04:33N 36°40' E 000°12'10 8.9
2015-Jul-20 03:29N 36°38' E 000°01'8 8.9
2015-Jul-20 02:33N 36°37' W 000°10'9 8.6
2015-Jul-20 01:34N 36°35' W 000°20'30 8.5
2015-Jul-19 22:03N 36°32' W 000°57'16 8.7
2015-Jul-19 20:14N 36°29' W 001°17'34 9.0
2015-Jul-19 16:28N 36°24' W 001°58'18 9.5
2015-Jul-19 14:33N 36°21' W 002°20'298 8.5
2015-Jul-18 03:33N 36°23' W 008°30'10 9.6
2015-Jul-18 02:28N 36°26' W 008°43'12 9.4
2015-Jul-18 01:13N 36°29' W 008°57'33 8.8
2015-Jul-17 21:30N 36°46' W 009°31'13 9.5
2015-Jul-17 20:08N 36°58' W 009°37'610.1
2015-Jul-17 19:33N 37°04' W 009°38'1110.3
2015-Jul-17 18:27N 37°15' W 009°41'910.2
2015-Jul-17 17:33N 37°24' W 009°44'1010.1
2015-Jul-17 16:33N 37°34' W 009°47'1010.2
2015-Jul-17 15:33N 37°44' W 009°50'1010.5
2015-Jul-17 14:33N 37°54' W 009°53'1110.6
2015-Jul-17 13:32N 38°04' W 009°56'1010.5
2015-Jul-17 12:33N 38°14' W 009°59'10 9.9
2015-Jul-17 11:33N 38°24' W 010°02'1010.2
2015-Jul-17 10:33N 38°34' W 010°05'10 9.6
2015-Jul-17 09:33N 38°43' W 010°07'1010.3
2015-Jul-17 08:33N 38°54' W 010°07'1010.3
2015-Jul-17 07:33N 39°04' W 010°06'1010.3
2015-Jul-17 06:33N 39°14' W 010°03'10 9.9
2015-Jul-17 05:32N 39°24' W 009°60'10 9.7
2015-Jul-17 04:31N 39°33' W 009°56'  

Dump ship's entire track history